aviador You're here:

LFBE Decoded Metar

BERGERAC in FRANCE
Report Time2017-09-25 16:30:00
UTC Time2017-09-25 16:53:09
Flight Rules mvfr MVFR
Wind280° at 11 kt
W.Decomp.*RWY 28: 11.0 kt HW 0 kt LCW
W.Rank280° ranks 2
Current wind is above 280° avg. (7.1)
Visibility9999 m
Phenomena:N/A
Clouds:Few 042 Hf
Expected CloudBase > 3,200 ft AGL from Temp-Dew spread
Ceiling2,000 ft
Temp21°C (ISA +6)
Dew Point13°C (60% RH)
AAT17.9°C
QNH1020 hPa
Density Alt876 ft
Elevation171 ft
Report Wrong Elevation
Raw Report
LFBE 251630Z AUTO 28011KT 9999 FEW042/// ///CB 21/13 Q1020 BECMG
BKN020=

Extra information for LFBE:More info

Metar Taf Metar & Taf Last 4 Metars F.Rules Stats Wind Profile Meteogram Temp Stats Airport Information Weather charts Add Link Nearby VenuesMetar ALERT Operation Metar Decoded Social comments